createdAt,value
2022-08-28T00:02:05.642Z,13.61
2022-08-28T00:04:33.351Z,13.58
2022-08-28T00:07:01.566Z,13.58
2022-08-28T00:09:29.147Z,13.54
2022-08-28T00:11:56.731Z,13.53
2022-08-28T00:14:26.225Z,13.50
2022-08-28T00:16:54.549Z,13.51
2022-08-28T00:19:24.006Z,13.47
2022-08-28T00:21:52.294Z,13.37
2022-08-28T00:24:19.954Z,13.44
2022-08-28T00:27:05.558Z,13.47
2022-08-28T00:29:33.179Z,13.46
2022-08-28T00:32:00.959Z,13.43
2022-08-28T00:34:33.099Z,13.41
2022-08-28T00:37:01.579Z,13.37
2022-08-28T00:39:29.321Z,13.23
2022-08-28T00:41:57.962Z,13.35
2022-08-28T00:44:27.742Z,13.34
2022-08-28T00:46:57.812Z,13.30
2022-08-28T00:49:28.849Z,13.29
2022-08-28T00:52:09.042Z,13.27
2022-08-28T00:54:59.511Z,13.21
2022-08-28T00:57:48.456Z,13.16
2022-08-28T01:00:22.025Z,13.15
2022-08-28T01:02:49.623Z,13.14
2022-08-28T01:05:18.213Z,13.11
2022-08-28T01:07:46.973Z,13.02
2022-08-28T01:10:19.299Z,13.07
2022-08-28T01:12:47.040Z,13.04
2022-08-28T01:15:18.315Z,13.03
2022-08-28T01:17:50.061Z,13.01
2022-08-28T01:20:22.128Z,13.00
2022-08-28T01:23:09.023Z,12.97
2022-08-28T01:25:39.053Z,12.94
2022-08-28T01:28:12.418Z,12.91
2022-08-28T01:30:42.900Z,12.87
2022-08-28T01:33:10.391Z,12.87
2022-08-28T01:35:43.750Z,12.85
2022-08-28T01:38:11.862Z,12.83
2022-08-28T01:40:45.126Z,12.81
2022-08-28T01:43:24.091Z,12.78
2022-08-28T01:45:56.039Z,12.73
2022-08-28T01:48:26.708Z,12.70
2022-08-28T01:50:55.145Z,12.64
2022-08-28T01:53:25.667Z,12.61
2022-08-28T01:56:02.978Z,12.60
2022-08-28T01:58:37.406Z,12.59
2022-08-28T02:01:06.063Z,12.61
2022-08-28T02:03:33.675Z,12.62
2022-08-28T02:06:01.157Z,12.61
2022-08-28T02:08:28.739Z,12.63
2022-08-28T02:10:56.198Z,12.59
2022-08-28T02:13:25.675Z,12.62
2022-08-28T02:15:53.330Z,12.64
2022-08-28T02:18:22.017Z,12.66
2022-08-28T02:20:49.583Z,12.63
2022-08-28T02:23:17.670Z,12.62
2022-08-28T02:25:45.205Z,12.61
2022-08-28T02:28:12.787Z,12.58
2022-08-28T02:30:41.025Z,12.55
2022-08-28T02:33:08.949Z,12.56
2022-08-28T02:35:36.497Z,12.54
2022-08-28T02:38:04.622Z,12.51
2022-08-28T02:40:32.678Z,12.50
2022-08-28T02:43:00.259Z,12.48
2022-08-28T02:45:27.770Z,12.38
2022-08-28T02:47:56.805Z,12.40
2022-08-28T02:50:24.815Z,12.38
2022-08-28T02:52:52.605Z,12.33
2022-08-28T02:55:20.800Z,12.35
2022-08-28T02:57:49.361Z,12.34
2022-08-28T03:00:21.079Z,12.31
2022-08-28T03:02:49.602Z,12.31
2022-08-28T03:05:20.417Z,12.30
2022-08-28T03:07:48.821Z,12.27
2022-08-28T03:10:16.921Z,12.21
2022-08-28T03:12:44.478Z,12.18
2022-08-28T03:15:12.605Z,12.14
2022-08-28T03:17:40.588Z,12.12
2022-08-28T03:20:11.327Z,12.10
2022-08-28T03:22:57.380Z,12.05
2022-08-28T03:25:25.642Z,12.01
2022-08-28T03:27:53.706Z,12.01
2022-08-28T03:30:23.234Z,12.01
2022-08-28T03:32:50.764Z,12.00
2022-08-28T03:35:18.545Z,12.00
2022-08-28T03:37:46.015Z,12.01
2022-08-28T03:40:14.593Z,12.00
2022-08-28T03:42:42.274Z,12.01
2022-08-28T03:45:18.952Z,12.00
2022-08-28T03:47:46.678Z,11.98
2022-08-28T03:50:14.607Z,11.99
2022-08-28T03:52:42.275Z,11.94
2022-08-28T03:55:12.668Z,11.98
2022-08-28T03:57:40.913Z,11.97
2022-08-28T04:00:13.351Z,11.97
2022-08-28T04:02:46.177Z,11.95
2022-08-28T04:05:14.993Z,11.93
2022-08-28T04:07:42.497Z,11.90
2022-08-28T04:10:10.663Z,11.88
2022-08-28T04:12:38.757Z,11.87
2022-08-28T04:15:07.845Z,11.86
2022-08-28T04:17:37.822Z,11.85
2022-08-28T04:20:06.153Z,11.84
2022-08-28T04:22:33.993Z,11.81
2022-08-28T04:25:01.943Z,11.87
2022-08-28T04:27:29.457Z,11.88
2022-08-28T04:29:56.946Z,11.86
2022-08-28T04:32:24.531Z,11.83
2022-08-28T04:34:52.438Z,11.87
2022-08-28T04:37:20.073Z,11.84
2022-08-28T04:39:50.289Z,11.84
2022-08-28T04:42:17.769Z,11.84
2022-08-28T04:44:45.259Z,11.79
2022-08-28T04:47:12.782Z,11.83
2022-08-28T04:49:40.749Z,11.78
2022-08-28T04:52:08.308Z,11.80
2022-08-28T04:54:36.209Z,11.77
2022-08-28T04:57:06.416Z,11.76
2022-08-28T04:59:34.354Z,11.79
2022-08-28T05:02:01.936Z,11.79
2022-08-28T05:04:29.688Z,11.79
2022-08-28T05:06:57.227Z,11.78
2022-08-28T05:09:24.682Z,11.77
2022-08-28T05:11:53.130Z,11.79
2022-08-28T05:14:21.713Z,11.79
2022-08-28T05:16:52.778Z,11.84
2022-08-28T05:19:22.435Z,11.85
2022-08-28T05:21:49.941Z,11.86
2022-08-28T05:24:18.139Z,11.86
2022-08-28T05:26:48.025Z,11.93
2022-08-28T05:29:16.767Z,11.98
2022-08-28T05:31:44.823Z,12.03
2022-08-28T05:34:14.449Z,12.05
2022-08-28T05:36:42.300Z,12.17
2022-08-28T05:39:12.060Z,12.21
2022-08-28T05:41:43.190Z,12.27
2022-08-28T05:44:14.186Z,12.30
2022-08-28T05:46:44.406Z,12.41
2022-08-28T05:49:13.479Z,12.50
2022-08-28T05:51:42.892Z,12.61
2022-08-28T05:54:11.459Z,12.73
2022-08-28T05:56:40.719Z,12.87
2022-08-28T05:59:09.151Z,13.00
2022-08-28T06:01:40.733Z,13.13
2022-08-28T06:04:15.330Z,13.33
2022-08-28T06:06:43.894Z,13.45
2022-08-28T06:09:15.052Z,13.55
2022-08-28T06:11:46.102Z,13.73
2022-08-28T06:14:17.463Z,13.84
2022-08-28T06:16:47.295Z,14.01
2022-08-28T06:19:15.233Z,14.12
2022-08-28T06:21:44.258Z,14.30
2022-08-28T06:24:13.400Z,14.47
2022-08-28T06:26:42.730Z,14.62
2022-08-28T06:29:12.890Z,14.79
2022-08-28T06:31:41.150Z,14.98
2022-08-28T06:34:10.017Z,15.06
2022-08-28T06:36:42.733Z,15.19
2022-08-28T06:39:12.255Z,15.27
2022-08-28T06:41:43.242Z,15.53
2022-08-28T06:44:13.462Z,15.60
2022-08-28T06:46:42.391Z,15.65
2022-08-28T06:49:10.290Z,15.73
2022-08-28T06:51:37.818Z,15.98
2022-08-28T06:54:06.426Z,16.03
2022-08-28T06:56:34.892Z,16.04
2022-08-28T06:59:02.603Z,16.17
2022-08-28T07:01:34.123Z,16.19
2022-08-28T07:04:06.160Z,16.39
2022-08-28T07:06:36.331Z,16.45
2022-08-28T07:09:06.986Z,16.44
2022-08-28T07:11:36.148Z,16.55
2022-08-28T07:14:05.199Z,16.76
2022-08-28T07:16:38.010Z,16.72
2022-08-28T07:19:06.767Z,16.74
2022-08-28T07:21:43.804Z,16.96
2022-08-28T07:24:14.607Z,16.90
2022-08-28T07:26:43.634Z,16.99
2022-08-28T07:29:11.927Z,17.06
2022-08-28T07:31:42.440Z,17.36
2022-08-28T07:34:12.083Z,17.51
2022-08-28T07:36:40.484Z,17.54
2022-08-28T07:39:09.974Z,17.27
2022-08-28T07:41:39.392Z,17.20
2022-08-28T07:44:25.803Z,17.28
2022-08-28T07:46:59.151Z,17.42
2022-08-28T07:49:27.463Z,17.51
2022-08-28T07:51:55.014Z,17.44
2022-08-28T07:54:23.527Z,17.65
2022-08-28T07:56:52.574Z,17.54
2022-08-28T07:59:21.948Z,17.77
2022-08-28T08:01:51.209Z,17.79
2022-08-28T08:04:21.261Z,17.85
2022-08-28T08:06:50.081Z,17.85
2022-08-28T08:09:20.193Z,18.03
2022-08-28T08:11:50.593Z,17.97
2022-08-28T08:14:18.958Z,18.38
2022-08-28T08:16:47.985Z,18.50
2022-08-28T08:19:17.332Z,18.59
2022-08-28T08:21:48.276Z,18.58
2022-08-28T08:24:22.186Z,18.73
2022-08-28T08:26:59.334Z,19.25
2022-08-28T08:29:29.478Z,19.17
2022-08-28T08:32:02.634Z,19.44
2022-08-28T08:34:30.615Z,19.67
2022-08-28T08:36:58.545Z,19.64
2022-08-28T08:39:26.395Z,20.04
2022-08-28T08:41:58.177Z,19.66
2022-08-28T08:44:33.601Z,19.68
2022-08-28T08:47:15.134Z,19.34
2022-08-28T08:49:57.229Z,19.56
2022-08-28T08:52:37.156Z,19.98
2022-08-28T08:55:31.944Z,19.82
2022-08-28T08:58:07.585Z,20.24
2022-08-28T09:00:40.571Z,20.05
2022-08-28T09:03:22.218Z,20.13
2022-08-28T09:05:55.712Z,20.24
2022-08-28T09:08:30.808Z,20.85
2022-08-28T09:11:05.554Z,20.84
2022-08-28T09:13:49.275Z,20.71
2022-08-28T09:16:36.558Z,20.77
2022-08-28T09:19:04.515Z,20.99
2022-08-28T09:21:35.764Z,20.74
2022-08-28T09:24:11.128Z,21.34
2022-08-28T09:26:40.769Z,21.24
2022-08-28T09:29:17.283Z,21.52
2022-08-28T09:31:45.148Z,21.02
2022-08-28T09:34:24.572Z,21.14
2022-08-28T09:36:54.558Z,21.58
2022-08-28T09:39:28.660Z,21.78
2022-08-28T09:42:22.570Z,22.14
2022-08-28T09:45:09.428Z,22.39
2022-08-28T09:47:43.775Z,21.53
2022-08-28T09:50:31.813Z,22.01
2022-08-28T09:53:10.477Z,21.88
2022-08-28T09:56:01.125Z,21.53
2022-08-28T09:58:43.475Z,22.42
2022-08-28T10:01:29.489Z,22.07
2022-08-28T10:04:13.729Z,22.21
2022-08-28T10:06:43.663Z,22.33
2022-08-28T10:09:29.249Z,21.96
2022-08-28T10:12:17.112Z,21.14
2022-08-28T10:14:56.812Z,21.02
2022-08-28T10:17:42.644Z,21.11
2022-08-28T10:20:48.073Z,21.42
2022-08-28T10:23:29.890Z,21.99
2022-08-28T10:26:21.495Z,22.28
2022-08-28T10:28:56.317Z,22.42
2022-08-28T10:31:36.257Z,21.48
2022-08-28T10:34:26.000Z,21.84
2022-08-28T10:37:05.378Z,21.84
2022-08-28T10:39:55.096Z,21.84
2022-08-28T10:42:39.346Z,22.33
2022-08-28T10:45:19.042Z,22.16
2022-08-28T10:47:58.694Z,22.68
2022-08-28T10:50:31.092Z,23.43
2022-08-28T10:53:03.873Z,23.27
2022-08-28T10:55:56.218Z,22.06
2022-08-28T10:58:27.510Z,21.53
2022-08-28T11:01:26.192Z,21.41
2022-08-28T11:03:54.540Z,21.42
2022-08-28T11:06:46.598Z,21.54
2022-08-28T11:09:30.529Z,21.31
2022-08-28T11:12:28.439Z,22.30
2022-08-28T11:14:56.264Z,22.15
2022-08-28T11:17:25.149Z,22.72
2022-08-28T11:20:16.603Z,23.00
2022-08-28T11:22:50.706Z,23.68
2022-08-28T11:25:32.618Z,23.04
2022-08-28T11:28:25.486Z,22.82
2022-08-28T11:31:16.347Z,23.09
2022-08-28T11:33:55.461Z,23.13
2022-08-28T11:36:23.446Z,22.80
2022-08-28T11:38:54.037Z,22.92
2022-08-28T11:41:22.563Z,22.73
2022-08-28T11:43:53.445Z,23.33
2022-08-28T11:46:26.068Z,22.45
2022-08-28T11:48:57.847Z,23.05
2022-08-28T11:51:43.367Z,23.16
2022-08-28T11:54:31.825Z,22.74
2022-08-28T11:57:27.158Z,23.82
2022-08-28T12:00:07.473Z,24.44
2022-08-28T12:02:47.694Z,24.02
2022-08-28T12:05:18.095Z,23.74
2022-08-28T12:07:51.003Z,23.79
2022-08-28T12:10:21.613Z,23.23
2022-08-28T12:12:50.086Z,23.27
2022-08-28T12:15:40.390Z,23.15
2022-08-28T12:18:16.961Z,22.79
2022-08-28T12:21:05.173Z,23.91
2022-08-28T12:23:39.428Z,24.02
2022-08-28T12:26:28.331Z,24.04
2022-08-28T12:29:16.723Z,23.87
2022-08-28T12:32:23.254Z,24.50
2022-08-28T12:34:59.753Z,24.15
2022-08-28T12:37:52.004Z,24.16
2022-08-28T12:40:22.280Z,23.10
2022-08-28T12:42:55.564Z,23.29
2022-08-28T12:45:30.747Z,23.43
2022-08-28T12:48:01.940Z,22.87
2022-08-28T12:50:33.724Z,22.93
2022-08-28T12:53:02.469Z,22.29
2022-08-28T12:55:30.528Z,22.83
2022-08-28T12:57:58.261Z,23.99
2022-08-28T13:00:35.653Z,24.63
2022-08-28T13:03:08.146Z,24.17
2022-08-28T13:05:39.677Z,23.65
2022-08-28T13:08:11.300Z,24.26
2022-08-28T13:10:44.283Z,24.09
2022-08-28T13:13:29.035Z,23.37
2022-08-28T13:16:01.408Z,23.45
2022-08-28T13:18:39.609Z,23.85
2022-08-28T13:21:32.931Z,23.92
2022-08-28T13:24:22.855Z,24.39
2022-08-28T13:27:10.153Z,24.33
2022-08-28T13:29:38.497Z,24.43
2022-08-28T13:32:10.322Z,24.49
2022-08-28T13:34:47.654Z,24.35
2022-08-28T13:37:46.728Z,24.38
2022-08-28T13:40:45.898Z,25.06
2022-08-28T13:43:10.171Z,24.43
2022-08-28T13:45:44.099Z,24.26
2022-08-28T13:48:17.381Z,24.36
2022-08-28T13:50:48.051Z,23.74
2022-08-28T13:53:18.201Z,23.71
2022-08-28T13:55:46.916Z,23.73
2022-08-28T13:58:15.817Z,23.99
2022-08-28T14:00:47.304Z,23.25
2022-08-28T14:03:41.544Z,22.54
2022-08-28T14:06:11.829Z,22.59
2022-08-28T14:08:44.348Z,22.40
2022-08-28T14:11:14.337Z,22.32
2022-08-28T14:13:47.080Z,22.42
2022-08-28T14:16:22.875Z,22.48
2022-08-28T14:18:51.887Z,22.42
2022-08-28T14:21:19.727Z,22.21
2022-08-28T14:23:47.247Z,21.95
2022-08-28T14:26:14.826Z,22.09
2022-08-28T14:28:42.669Z,21.79
2022-08-28T14:31:14.453Z,22.04
2022-08-28T14:33:45.218Z,22.25
2022-08-28T14:36:22.151Z,21.86
2022-08-28T14:38:53.992Z,22.16
2022-08-28T14:41:23.202Z,21.99
2022-08-28T14:43:51.356Z,21.64
2022-08-28T14:46:21.859Z,21.59
2022-08-28T14:48:50.648Z,21.77
2022-08-28T14:51:19.247Z,21.74
2022-08-28T14:53:47.401Z,21.44
2022-08-28T14:56:14.900Z,21.19
2022-08-28T14:58:42.522Z,21.57
2022-08-28T15:01:10.418Z,21.75
2022-08-28T15:03:38.123Z,21.76
2022-08-28T15:06:10.936Z,21.85
2022-08-28T15:08:38.621Z,21.87
2022-08-28T15:11:08.402Z,22.10
2022-08-28T15:13:35.972Z,21.82
2022-08-28T15:16:10.573Z,21.82
2022-08-28T15:18:45.679Z,21.55
2022-08-28T15:21:21.635Z,21.88
2022-08-28T15:23:53.984Z,22.04
2022-08-28T15:26:23.187Z,21.66
2022-08-28T15:28:52.227Z,21.73
2022-08-28T15:31:20.100Z,21.76
2022-08-28T15:33:47.744Z,21.80
2022-08-28T15:36:15.259Z,21.74
2022-08-28T15:39:00.267Z,21.40
2022-08-28T15:41:29.293Z,21.53
2022-08-28T15:44:01.536Z,21.42
2022-08-28T15:46:31.437Z,21.36
2022-08-28T15:48:59.082Z,21.40
2022-08-28T15:51:26.874Z,21.13
2022-08-28T15:53:56.364Z,21.17
2022-08-28T15:56:24.513Z,20.99
2022-08-28T15:58:52.539Z,20.99
2022-08-28T16:01:22.349Z,20.90
2022-08-28T16:03:49.943Z,20.69
2022-08-28T16:06:21.095Z,20.86
2022-08-28T16:08:49.701Z,20.99
2022-08-28T16:11:22.998Z,20.98
2022-08-28T16:13:52.222Z,20.70
2022-08-28T16:16:19.916Z,20.80
2022-08-28T16:18:48.300Z,20.83
2022-08-28T16:21:16.189Z,20.70
2022-08-28T16:23:44.150Z,20.72
2022-08-28T16:26:11.957Z,20.64
2022-08-28T16:28:39.851Z,20.51
2022-08-28T16:31:18.868Z,20.43
2022-08-28T16:33:47.261Z,20.41
2022-08-28T16:36:15.734Z,20.25
2022-08-28T16:38:45.530Z,20.18
2022-08-28T16:41:19.580Z,20.16
2022-08-28T16:43:47.850Z,20.33
2022-08-28T16:46:21.378Z,20.19
2022-08-28T16:48:49.070Z,20.07
2022-08-28T16:51:17.737Z,20.05
2022-08-28T16:53:45.337Z,20.06
2022-08-28T16:56:15.482Z,20.02
2022-08-28T16:58:44.954Z,20.06
2022-08-28T17:01:13.837Z,19.90
2022-08-28T17:03:42.617Z,19.81
2022-08-28T17:06:31.906Z,19.73
2022-08-28T17:09:00.668Z,19.64
2022-08-28T17:11:29.412Z,19.61
2022-08-28T17:13:57.447Z,19.58
2022-08-28T17:16:27.219Z,19.54
2022-08-28T17:18:54.780Z,19.51
2022-08-28T17:21:43.186Z,19.59
2022-08-28T17:24:12.794Z,19.62
2022-08-28T17:26:41.655Z,19.53
2022-08-28T17:29:09.379Z,19.60
2022-08-28T17:31:37.243Z,19.50
2022-08-28T17:34:07.339Z,19.55
2022-08-28T17:36:37.628Z,19.50
2022-08-28T17:39:08.791Z,19.45
2022-08-28T17:41:36.950Z,19.35
2022-08-28T17:44:06.048Z,19.34
2022-08-28T17:46:37.710Z,19.20
2022-08-28T17:49:06.487Z,19.21
2022-08-28T17:51:42.607Z,19.11
2022-08-28T17:54:11.647Z,19.04
2022-08-28T17:56:39.138Z,19.00
2022-08-28T17:59:06.784Z,18.90
2022-08-28T18:01:34.376Z,18.82
2022-08-28T18:04:02.163Z,18.75
2022-08-28T18:06:29.652Z,18.68
2022-08-28T18:08:57.156Z,18.54
2022-08-28T18:11:25.860Z,18.47
2022-08-28T18:13:53.418Z,18.41
2022-08-28T18:16:21.585Z,18.41
2022-08-28T18:18:49.231Z,18.28
2022-08-28T18:21:16.713Z,18.21
2022-08-28T18:23:44.202Z,18.09
2022-08-28T18:26:12.173Z,18.05
2022-08-28T18:28:39.810Z,18.05
2022-08-28T18:31:08.336Z,18.02
2022-08-28T18:33:37.156Z,17.94
2022-08-28T18:36:09.195Z,17.83
2022-08-28T18:38:36.975Z,17.80
2022-08-28T18:41:06.426Z,17.76
2022-08-28T18:43:34.041Z,17.68
2022-08-28T18:46:03.013Z,17.64
2022-08-28T18:48:32.254Z,17.58
2022-08-28T18:50:59.760Z,17.50
2022-08-28T18:53:28.767Z,17.47
2022-08-28T18:55:56.607Z,17.44
2022-08-28T18:58:28.180Z,17.38
2022-08-28T19:00:55.873Z,17.36
2022-08-28T19:03:23.613Z,17.26
2022-08-28T19:05:51.893Z,17.25
2022-08-28T19:08:19.499Z,17.20
2022-08-28T19:10:47.274Z,17.15
2022-08-28T19:13:15.004Z,17.13
2022-08-28T19:15:42.673Z,17.10
2022-08-28T19:18:10.176Z,17.06
2022-08-28T19:20:37.691Z,17.02
2022-08-28T19:23:05.167Z,16.98
2022-08-28T19:25:32.793Z,16.95
2022-08-28T19:28:02.628Z,16.89
2022-08-28T19:30:33.513Z,16.87
2022-08-28T19:33:03.707Z,16.83
2022-08-28T19:35:31.374Z,16.80
2022-08-28T19:37:58.926Z,16.77
2022-08-28T19:40:27.335Z,16.75
2022-08-28T19:42:54.923Z,16.72
2022-08-28T19:45:23.158Z,16.65
2022-08-28T19:47:51.604Z,16.65
2022-08-28T19:50:20.261Z,16.62
2022-08-28T19:52:47.873Z,16.59
2022-08-28T19:55:25.721Z,16.55
2022-08-28T19:57:53.290Z,16.52
2022-08-28T20:00:25.121Z,16.49
2022-08-28T20:02:53.334Z,16.35
2022-08-28T20:05:21.643Z,16.43
2022-08-28T20:07:49.731Z,16.33
2022-08-28T20:10:18.415Z,16.35
2022-08-28T20:12:48.367Z,16.32
2022-08-28T20:15:18.318Z,16.29
2022-08-28T20:17:49.843Z,16.30
2022-08-28T20:20:24.577Z,16.29
2022-08-28T20:22:54.407Z,16.30
2022-08-28T20:25:22.305Z,16.30
2022-08-28T20:27:49.829Z,16.31
2022-08-28T20:30:18.032Z,16.28
2022-08-28T20:32:45.838Z,16.29
2022-08-28T20:35:15.335Z,16.26
2022-08-28T20:37:45.326Z,16.23
2022-08-28T20:40:19.561Z,16.24
2022-08-28T20:42:47.465Z,16.27
2022-08-28T20:45:16.537Z,16.25
2022-08-28T20:47:44.664Z,16.32
2022-08-28T20:50:13.823Z,16.33
2022-08-28T20:52:42.268Z,16.41
2022-08-28T20:55:10.710Z,16.41
2022-08-28T20:57:38.326Z,16.44
2022-08-28T21:00:10.552Z,16.43
2022-08-28T21:02:38.271Z,16.35
2022-08-28T21:05:06.697Z,16.35
2022-08-28T21:07:35.207Z,16.35
2022-08-28T21:10:05.346Z,16.34
2022-08-28T21:12:39.942Z,16.29
2022-08-28T21:15:09.471Z,16.33
2022-08-28T21:17:37.310Z,16.16
2022-08-28T21:20:12.997Z,16.19
2022-08-28T21:22:41.437Z,16.17
2022-08-28T21:25:11.388Z,16.17
2022-08-28T21:27:39.304Z,16.17
2022-08-28T21:30:08.614Z,16.18
2022-08-28T21:32:36.933Z,16.15
2022-08-28T21:35:06.955Z,16.08
2022-08-28T21:37:35.155Z,16.18
2022-08-28T21:40:03.881Z,16.15
2022-08-28T21:42:31.545Z,16.11
2022-08-28T21:44:59.248Z,16.08
2022-08-28T21:47:27.423Z,16.04
2022-08-28T21:49:56.849Z,16.07
2022-08-28T21:52:28.111Z,16.02
2022-08-28T21:55:08.020Z,16.02
2022-08-28T21:57:35.793Z,15.90
2022-08-28T22:00:05.598Z,15.95
2022-08-28T22:02:33.214Z,15.94
2022-08-28T22:05:00.782Z,15.91
2022-08-28T22:07:28.287Z,15.85
2022-08-28T22:09:55.776Z,15.81
2022-08-28T22:12:23.250Z,15.76
2022-08-28T22:14:50.742Z,15.67
2022-08-28T22:17:18.220Z,15.65
2022-08-28T22:19:46.730Z,15.58
2022-08-28T22:22:32.117Z,15.50
2022-08-28T22:24:59.920Z,15.41
2022-08-28T22:27:27.522Z,15.33
2022-08-28T22:29:54.989Z,15.22
2022-08-28T22:32:25.524Z,15.27
2022-08-28T22:34:55.676Z,15.21
2022-08-28T22:37:23.938Z,15.18
2022-08-28T22:39:51.568Z,15.14
2022-08-28T22:42:19.497Z,15.10
2022-08-28T22:44:47.239Z,15.07
2022-08-28T22:47:14.769Z,15.03
2022-08-28T22:49:42.655Z,14.95
2022-08-28T22:52:11.814Z,14.90
2022-08-28T22:54:39.395Z,14.77
2022-08-28T22:57:06.924Z,14.80
2022-08-28T22:59:35.334Z,14.78
2022-08-28T23:02:03.873Z,14.74
2022-08-28T23:04:31.926Z,14.71
2022-08-28T23:06:59.423Z,14.66
2022-08-28T23:09:27.519Z,14.63
2022-08-28T23:11:55.023Z,14.61
2022-08-28T23:14:25.797Z,14.53
2022-08-28T23:16:55.866Z,14.50
2022-08-28T23:19:23.494Z,14.42
2022-08-28T23:21:51.199Z,14.39
2022-08-28T23:24:19.375Z,14.26
2022-08-28T23:26:46.928Z,14.26
2022-08-28T23:29:15.237Z,14.21
2022-08-28T23:31:42.858Z,14.19
2022-08-28T23:34:10.415Z,14.17
2022-08-28T23:36:39.420Z,14.13
2022-08-28T23:39:10.491Z,14.05
2022-08-28T23:41:37.990Z,14.02
2022-08-28T23:44:09.043Z,14.00
2022-08-28T23:46:41.630Z,13.93
2022-08-28T23:49:10.082Z,13.85
2022-08-28T23:51:37.751Z,13.89
2022-08-28T23:54:05.474Z,13.86
2022-08-28T23:56:33.802Z,13.85
2022-08-28T23:59:01.340Z,13.80
